createdAt,value
2022-12-22T00:00:38.831Z,7.50
2022-12-22T00:03:31.035Z,7.60
2022-12-22T00:06:16.991Z,7.70
2022-12-22T00:09:05.888Z,7.70
2022-12-22T00:11:51.730Z,7.70
2022-12-22T00:14:38.015Z,7.70
2022-12-22T00:17:34.056Z,7.80
2022-12-22T00:20:20.526Z,7.80
2022-12-22T00:23:06.310Z,7.90
2022-12-22T00:25:52.947Z,7.90
2022-12-22T00:28:39.033Z,7.90
2022-12-22T00:31:24.418Z,7.90
2022-12-22T00:34:10.053Z,8.00
2022-12-22T00:36:56.011Z,8.00
2022-12-22T00:39:41.450Z,8.00
2022-12-22T00:42:28.140Z,8.10
2022-12-22T00:45:13.827Z,8.10
2022-12-22T00:48:00.722Z,8.20
2022-12-22T00:50:50.504Z,8.30
2022-12-22T00:53:37.184Z,8.30
2022-12-22T00:56:23.880Z,8.30
2022-12-22T00:59:13.955Z,8.40
2022-12-22T01:01:59.770Z,8.40
2022-12-22T01:04:45.376Z,8.40
2022-12-22T01:07:32.757Z,8.40
2022-12-22T01:10:19.065Z,8.50
2022-12-22T01:13:05.226Z,8.60
2022-12-22T01:15:51.913Z,8.50
2022-12-22T01:18:37.320Z,8.50
2022-12-22T01:21:23.268Z,8.50
2022-12-22T01:24:08.831Z,8.60
2022-12-22T01:26:54.500Z,8.50
2022-12-22T01:29:40.003Z,8.50
2022-12-22T01:32:30.577Z,8.50
2022-12-22T01:35:16.035Z,8.50
2022-12-22T01:38:01.662Z,8.40
2022-12-22T01:40:47.311Z,8.40
2022-12-22T01:43:39.207Z,8.40
2022-12-22T01:46:42.386Z,8.40
2022-12-22T01:49:32.102Z,8.50
2022-12-22T01:52:17.440Z,8.40
2022-12-22T01:55:03.275Z,8.40
2022-12-22T01:57:50.681Z,8.50
2022-12-22T02:00:36.461Z,8.40
2022-12-22T02:03:22.611Z,8.30
2022-12-22T02:06:29.428Z,8.20
2022-12-22T02:09:30.080Z,8.20
2022-12-22T02:12:22.723Z,8.20
2022-12-22T02:15:17.525Z,8.30
2022-12-22T02:18:11.919Z,8.20
2022-12-22T02:21:02.219Z,8.20
2022-12-22T02:24:12.143Z,8.20
2022-12-22T02:27:03.853Z,8.20
2022-12-22T02:29:53.822Z,8.10
2022-12-22T02:32:41.252Z,8.10
2022-12-22T02:35:30.296Z,8.10
2022-12-22T02:38:26.348Z,8.10
2022-12-22T02:41:23.849Z,8.10
2022-12-22T02:44:33.695Z,8.30
2022-12-22T02:47:27.220Z,8.00
2022-12-22T02:50:16.563Z,7.90
2022-12-22T02:53:04.572Z,7.90
2022-12-22T02:55:50.298Z,7.90
2022-12-22T02:58:37.081Z,8.00
2022-12-22T03:01:25.126Z,8.00
2022-12-22T03:04:10.687Z,8.00
2022-12-22T03:06:55.853Z,8.10
2022-12-22T03:09:41.308Z,8.10
2022-12-22T03:12:26.923Z,8.10
2022-12-22T03:15:12.500Z,8.10
2022-12-22T03:17:59.094Z,8.20
2022-12-22T03:20:44.515Z,8.20
2022-12-22T03:23:29.868Z,8.20
2022-12-22T03:25:57.830Z,8.20
2022-12-22T03:28:27.347Z,8.20
2022-12-22T03:30:58.831Z,8.20
2022-12-22T03:33:29.499Z,8.30
2022-12-22T03:35:58.081Z,8.20
2022-12-22T03:38:26.403Z,8.20
2022-12-22T03:40:54.445Z,8.20
2022-12-22T03:43:40.160Z,8.20
2022-12-22T03:46:25.314Z,8.20
2022-12-22T03:49:12.844Z,8.20
2022-12-22T03:51:44.319Z,8.20
2022-12-22T03:54:13.923Z,8.20
2022-12-22T03:56:42.674Z,8.20
2022-12-22T03:59:11.027Z,8.20
2022-12-22T04:01:41.132Z,8.20
2022-12-22T04:04:11.340Z,8.20
2022-12-22T04:06:39.711Z,8.30
2022-12-22T04:09:07.772Z,8.20
2022-12-22T04:11:53.393Z,8.20
2022-12-22T04:14:21.681Z,8.10
2022-12-22T04:16:49.834Z,8.20
2022-12-22T04:19:19.291Z,8.10
2022-12-22T04:21:47.317Z,8.10
2022-12-22T04:24:17.573Z,8.00
2022-12-22T04:26:45.570Z,8.00
2022-12-22T04:29:13.563Z,8.00
2022-12-22T04:31:41.743Z,8.00
2022-12-22T04:34:10.185Z,8.00
2022-12-22T04:36:39.498Z,7.90
2022-12-22T04:39:07.480Z,8.00
2022-12-22T04:41:35.470Z,7.80
2022-12-22T04:44:03.861Z,8.00
2022-12-22T04:46:40.940Z,8.00
2022-12-22T04:49:09.112Z,8.10
2022-12-22T04:51:37.095Z,8.10
2022-12-22T04:54:06.576Z,8.20
2022-12-22T04:56:34.627Z,8.00
2022-12-22T04:59:02.565Z,7.90
2022-12-22T05:01:30.682Z,7.90
2022-12-22T05:03:58.746Z,7.90
2022-12-22T05:06:26.728Z,7.80
2022-12-22T05:08:54.725Z,8.10
2022-12-22T05:11:24.198Z,7.90
2022-12-22T05:13:52.252Z,8.00
2022-12-22T05:16:20.305Z,7.90
2022-12-22T05:18:48.351Z,7.80
2022-12-22T05:21:17.979Z,7.80
2022-12-22T05:23:46.405Z,7.70
2022-12-22T05:26:15.517Z,7.90
2022-12-22T05:28:47.865Z,7.80
2022-12-22T05:31:18.219Z,7.80
2022-12-22T05:33:46.317Z,7.80
2022-12-22T05:36:14.489Z,7.80
2022-12-22T05:38:42.532Z,7.80
2022-12-22T05:41:10.661Z,7.90
2022-12-22T05:43:38.939Z,7.90
2022-12-22T05:46:10.164Z,7.90
2022-12-22T05:48:40.056Z,7.90
2022-12-22T05:51:09.282Z,7.80
2022-12-22T05:53:37.889Z,7.80
2022-12-22T05:56:06.654Z,7.80
2022-12-22T05:58:35.060Z,7.80
2022-12-22T06:01:03.177Z,7.80
2022-12-22T06:03:33.115Z,7.90
2022-12-22T06:06:01.484Z,7.90
2022-12-22T06:08:29.789Z,7.90
2022-12-22T06:10:59.559Z,7.90
2022-12-22T06:13:28.027Z,7.90
2022-12-22T06:15:56.232Z,7.90
2022-12-22T06:18:24.284Z,8.00
2022-12-22T06:20:54.440Z,7.90
2022-12-22T06:23:22.924Z,7.90
2022-12-22T06:26:01.743Z,8.00
2022-12-22T06:28:30.049Z,7.90
2022-12-22T06:30:58.169Z,7.80
2022-12-22T06:33:26.190Z,7.80
2022-12-22T06:35:58.843Z,7.80
2022-12-22T06:38:27.938Z,7.80
2022-12-22T06:40:56.025Z,7.70
2022-12-22T06:43:23.047Z,7.70
2022-12-22T06:45:51.089Z,7.70
2022-12-22T06:48:19.219Z,7.70
2022-12-22T06:50:47.322Z,7.70
2022-12-22T06:53:17.115Z,7.50
2022-12-22T06:55:45.270Z,7.70
2022-12-22T06:58:13.314Z,7.70
2022-12-22T07:00:41.472Z,7.70
2022-12-22T07:03:09.866Z,7.70
2022-12-22T07:05:38.033Z,7.80
2022-12-22T07:08:09.117Z,7.80
2022-12-22T07:10:56.183Z,7.70
2022-12-22T07:13:25.903Z,7.60
2022-12-22T07:16:02.189Z,7.60
2022-12-22T07:18:32.303Z,7.70
2022-12-22T07:21:01.284Z,7.60
2022-12-22T07:23:29.572Z,7.60
2022-12-22T07:25:59.321Z,7.60
2022-12-22T07:28:27.548Z,7.60
2022-12-22T07:30:56.382Z,7.60
2022-12-22T07:33:24.463Z,7.60
2022-12-22T07:36:06.131Z,7.90
2022-12-22T07:38:36.686Z,7.60
2022-12-22T07:41:27.960Z,7.60
2022-12-22T07:43:57.113Z,7.60
2022-12-22T07:46:26.785Z,7.60
2022-12-22T07:49:12.393Z,7.60
2022-12-22T07:51:41.750Z,7.60
2022-12-22T07:54:11.366Z,7.70
2022-12-22T07:56:41.429Z,7.60
2022-12-22T07:59:09.775Z,7.60
2022-12-22T08:01:37.877Z,7.90
2022-12-22T08:04:06.220Z,7.70
2022-12-22T08:06:34.767Z,7.70
2022-12-22T08:09:03.439Z,7.80
2022-12-22T08:11:31.462Z,7.90
2022-12-22T08:14:02.182Z,7.80
2022-12-22T08:16:30.778Z,7.80
2022-12-22T08:18:59.127Z,7.60
2022-12-22T08:21:27.251Z,7.80
2022-12-22T08:23:55.584Z,7.80
2022-12-22T08:26:28.410Z,7.80
2022-12-22T08:29:03.388Z,7.90
2022-12-22T08:31:34.529Z,7.90
2022-12-22T08:34:05.800Z,7.90
2022-12-22T08:36:37.753Z,8.00
2022-12-22T08:39:06.318Z,7.90
2022-12-22T08:41:51.273Z,8.00
2022-12-22T08:44:21.818Z,8.00
2022-12-22T08:46:51.812Z,8.00
2022-12-22T08:49:20.377Z,8.10
2022-12-22T08:51:48.724Z,8.10
2022-12-22T08:54:17.640Z,8.10
2022-12-22T08:56:45.982Z,8.20
2022-12-22T08:59:15.161Z,8.20
2022-12-22T09:01:47.978Z,8.20
2022-12-22T09:04:20.064Z,8.20
2022-12-22T09:06:48.365Z,8.30
2022-12-22T09:09:16.971Z,8.30
2022-12-22T09:11:45.484Z,8.30
2022-12-22T09:14:14.176Z,8.30
2022-12-22T09:16:42.902Z,8.40
2022-12-22T09:19:11.967Z,8.50
2022-12-22T09:21:41.522Z,8.40
2022-12-22T09:24:10.172Z,8.60
2022-12-22T09:26:38.419Z,8.50
2022-12-22T09:29:06.759Z,8.50
2022-12-22T09:31:35.504Z,8.60
2022-12-22T09:34:03.635Z,8.60
2022-12-22T09:36:33.727Z,8.60
2022-12-22T09:39:07.568Z,8.80
2022-12-22T09:41:38.943Z,8.70
2022-12-22T09:44:14.227Z,8.70
2022-12-22T09:46:42.612Z,8.80
2022-12-22T09:49:15.624Z,8.80
2022-12-22T09:51:47.340Z,8.90
2022-12-22T09:54:17.224Z,8.90
2022-12-22T09:56:45.301Z,8.90
2022-12-22T09:59:15.319Z,8.90
2022-12-22T10:01:58.850Z,8.90
2022-12-22T10:04:43.457Z,9.00
2022-12-22T10:07:24.304Z,9.00
2022-12-22T10:09:57.509Z,9.00
2022-12-22T10:12:29.757Z,9.10
2022-12-22T10:14:59.712Z,9.10
2022-12-22T10:17:32.733Z,9.10
2022-12-22T10:20:26.055Z,9.20
2022-12-22T10:22:56.851Z,9.20
2022-12-22T10:25:52.346Z,9.20
2022-12-22T10:28:25.536Z,9.30
2022-12-22T10:31:15.610Z,9.30
2022-12-22T10:33:47.896Z,9.40
2022-12-22T10:36:25.298Z,9.40
2022-12-22T10:39:05.280Z,9.40
2022-12-22T10:41:40.744Z,9.50
2022-12-22T10:44:19.150Z,9.40
2022-12-22T10:46:53.995Z,9.40
2022-12-22T10:49:26.811Z,9.40
2022-12-22T10:51:59.083Z,9.40
2022-12-22T10:54:38.869Z,9.40
2022-12-22T10:57:26.078Z,9.40
2022-12-22T10:59:55.638Z,9.50
2022-12-22T11:02:34.530Z,9.40
2022-12-22T11:05:11.234Z,9.40
2022-12-22T11:07:43.583Z,9.40
2022-12-22T11:10:24.020Z,9.40
2022-12-22T11:13:03.869Z,9.40
2022-12-22T11:15:40.221Z,9.30
2022-12-22T11:18:23.916Z,9.30
2022-12-22T11:21:00.237Z,9.30
2022-12-22T11:23:36.264Z,9.40
2022-12-22T11:26:12.593Z,9.30
2022-12-22T11:28:52.456Z,9.30
2022-12-22T11:31:38.466Z,9.40
2022-12-22T11:34:21.009Z,9.30
2022-12-22T11:37:02.143Z,9.30
2022-12-22T11:39:41.579Z,9.30
2022-12-22T11:42:25.831Z,9.20
2022-12-22T11:45:10.398Z,9.30
2022-12-22T11:47:46.780Z,9.30
2022-12-22T11:51:02.674Z,9.30
2022-12-22T11:53:37.642Z,9.30
2022-12-22T11:56:20.121Z,9.30
2022-12-22T11:59:20.155Z,9.50
2022-12-22T12:02:13.604Z,9.30
2022-12-22T12:05:05.300Z,9.30
2022-12-22T12:07:38.167Z,9.30
2022-12-22T12:10:18.716Z,9.20
2022-12-22T12:12:54.211Z,9.20
2022-12-22T12:15:31.977Z,9.10
2022-12-22T12:18:26.273Z,9.30
2022-12-22T12:21:11.734Z,9.30
2022-12-22T12:24:11.439Z,9.30
2022-12-22T12:26:48.827Z,9.30
2022-12-22T12:29:20.562Z,9.40
2022-12-22T12:31:54.931Z,9.40
2022-12-22T12:34:25.522Z,9.40
2022-12-22T12:36:59.960Z,9.40
2022-12-22T12:39:34.906Z,9.40
2022-12-22T12:42:12.968Z,9.70
2022-12-22T12:44:41.910Z,9.40
2022-12-22T12:47:26.907Z,9.50
2022-12-22T12:50:32.735Z,9.60
2022-12-22T12:53:10.534Z,9.70
2022-12-22T12:55:59.893Z,9.80
2022-12-22T12:58:58.317Z,9.90
2022-12-22T13:01:59.779Z,10.10
2022-12-22T13:05:11.636Z,10.10
2022-12-22T13:08:23.240Z,10.00
2022-12-22T13:12:11.369Z,10.00
2022-12-22T13:14:57.423Z,9.90
2022-12-22T13:17:41.773Z,9.90
2022-12-22T13:20:17.908Z,9.90
2022-12-22T13:22:48.215Z,9.80
2022-12-22T13:25:17.914Z,9.70
2022-12-22T13:27:47.663Z,9.70
2022-12-22T13:30:17.988Z,9.70
2022-12-22T13:32:49.546Z,9.80
2022-12-22T13:35:43.007Z,9.80
2022-12-22T13:38:29.269Z,9.80
2022-12-22T13:40:59.711Z,9.70
2022-12-22T13:43:32.494Z,9.60
2022-12-22T13:46:04.413Z,9.40
2022-12-22T13:48:43.896Z,9.30
2022-12-22T13:51:19.294Z,9.40
2022-12-22T13:54:08.259Z,9.40
2022-12-22T13:56:41.146Z,9.40
2022-12-22T13:59:27.146Z,9.30
2022-12-22T14:02:01.296Z,9.20
2022-12-22T14:04:30.468Z,9.20
2022-12-22T14:06:58.644Z,9.20
2022-12-22T14:09:28.362Z,9.30
2022-12-22T14:11:58.612Z,9.40
2022-12-22T14:14:31.079Z,9.50
2022-12-22T14:17:22.718Z,9.50
2022-12-22T14:19:53.384Z,9.40
2022-12-22T14:22:26.307Z,9.40
2022-12-22T14:24:58.926Z,9.30
2022-12-22T14:27:34.191Z,9.10
2022-12-22T14:30:06.749Z,9.10
2022-12-22T14:32:41.292Z,9.00
2022-12-22T14:35:27.497Z,8.90
2022-12-22T14:37:57.637Z,8.90
2022-12-22T14:40:34.343Z,8.80
2022-12-22T14:43:05.146Z,8.70
2022-12-22T14:45:35.066Z,8.60
2022-12-22T14:48:03.313Z,8.50
2022-12-22T14:50:31.668Z,8.40
2022-12-22T14:53:01.467Z,8.30
2022-12-22T14:55:32.302Z,8.30
2022-12-22T14:58:04.206Z,8.30
2022-12-22T15:00:36.350Z,8.00
2022-12-22T15:03:07.981Z,7.90
2022-12-22T15:05:39.217Z,7.80
2022-12-22T15:08:31.868Z,7.70
2022-12-22T15:11:03.250Z,7.70
2022-12-22T15:13:31.769Z,7.70
2022-12-22T15:16:01.530Z,7.60
2022-12-22T15:18:30.616Z,7.40
2022-12-22T15:20:59.302Z,7.40
2022-12-22T15:23:27.607Z,7.20
2022-12-22T15:25:55.853Z,7.10
2022-12-22T15:28:24.002Z,6.90
2022-12-22T15:30:52.847Z,6.90
2022-12-22T15:33:22.975Z,6.60
2022-12-22T15:35:51.279Z,6.80
2022-12-22T15:38:22.479Z,6.70
2022-12-22T15:40:51.635Z,6.60
2022-12-22T15:43:55.551Z,6.60
2022-12-22T15:46:08.685Z,6.50
2022-12-22T15:48:40.629Z,6.50
2022-12-22T15:51:17.750Z,6.50
2022-12-22T15:53:46.732Z,6.50
2022-12-22T15:56:19.575Z,6.60
2022-12-22T15:58:49.107Z,6.70
2022-12-22T16:01:18.095Z,6.70
2022-12-22T16:03:48.316Z,6.70
2022-12-22T16:06:19.080Z,6.70
2022-12-22T16:08:50.462Z,6.70
2022-12-22T16:11:19.384Z,6.70
2022-12-22T16:13:48.802Z,6.70
2022-12-22T16:16:17.197Z,6.60
2022-12-22T16:18:45.764Z,6.30
2022-12-22T16:21:19.324Z,6.60
2022-12-22T16:23:50.424Z,6.60
2022-12-22T16:26:21.798Z,6.80
2022-12-22T16:28:49.965Z,6.50
2022-12-22T16:31:20.565Z,6.50
2022-12-22T16:33:49.082Z,6.40
2022-12-22T16:36:19.023Z,6.40
2022-12-22T16:38:47.830Z,6.30
2022-12-22T16:41:24.991Z,6.10
2022-12-22T16:46:40.424Z,6.00
2022-12-22T16:49:10.079Z,5.90
2022-12-22T16:51:45.903Z,6.20
2022-12-22T16:54:15.513Z,5.90
2022-12-22T16:56:46.418Z,5.80
2022-12-22T16:59:14.623Z,5.70
2022-12-22T17:01:46.592Z,5.70
2022-12-22T17:04:16.830Z,5.80
2022-12-22T17:06:49.537Z,5.70
2022-12-22T17:09:21.317Z,5.90
2022-12-22T17:11:49.626Z,5.80
2022-12-22T17:14:28.201Z,5.70
2022-12-22T17:16:56.882Z,5.70
2022-12-22T17:19:25.107Z,5.90
2022-12-22T17:21:56.994Z,6.00
2022-12-22T17:24:28.425Z,6.10
2022-12-22T17:26:59.448Z,6.20
2022-12-22T17:29:27.749Z,6.30
2022-12-22T17:31:56.971Z,6.40
2022-12-22T17:34:25.940Z,6.30
2022-12-22T17:36:56.855Z,6.40
2022-12-22T17:39:25.602Z,6.60
2022-12-22T17:41:57.090Z,6.60
2022-12-22T17:44:27.431Z,6.70
2022-12-22T17:46:55.669Z,6.80
2022-12-22T17:49:23.940Z,6.90
2022-12-22T17:51:52.353Z,6.90
2022-12-22T17:54:26.104Z,7.00
2022-12-22T17:57:02.111Z,7.00
2022-12-22T17:59:33.085Z,7.00
2022-12-22T18:02:01.651Z,7.10
2022-12-22T18:04:30.135Z,7.10
2022-12-22T18:06:58.437Z,7.20
2022-12-22T18:09:28.346Z,7.10
2022-12-22T18:11:57.898Z,7.10
2022-12-22T18:14:28.811Z,7.10
2022-12-22T18:16:58.429Z,7.10
2022-12-22T18:19:26.763Z,7.10
2022-12-22T18:21:55.531Z,7.00
2022-12-22T18:24:23.817Z,7.00
2022-12-22T18:26:53.814Z,7.00
2022-12-22T18:29:22.400Z,6.90
2022-12-22T18:31:51.843Z,7.00
2022-12-22T18:34:20.666Z,7.00
2022-12-22T18:36:48.844Z,7.00
2022-12-22T18:39:20.528Z,7.00
2022-12-22T18:41:49.010Z,7.10
2022-12-22T18:44:19.487Z,7.00
2022-12-22T18:46:48.798Z,7.10
2022-12-22T18:49:17.314Z,7.00
2022-12-22T18:51:46.424Z,7.00
2022-12-22T18:54:32.479Z,7.00
2022-12-22T18:57:00.682Z,7.00
2022-12-22T18:59:31.257Z,7.00
2022-12-22T19:02:04.318Z,7.00
2022-12-22T19:04:33.293Z,7.00
2022-12-22T19:07:03.997Z,7.00
2022-12-22T19:09:32.047Z,7.10
2022-12-22T19:12:00.278Z,7.10
2022-12-22T19:14:31.023Z,7.10
2022-12-22T19:16:59.159Z,7.10
2022-12-22T19:19:27.550Z,7.00
2022-12-22T19:21:56.080Z,7.10
2022-12-22T19:24:24.201Z,7.10
2022-12-22T19:26:54.462Z,7.10
2022-12-22T19:29:22.761Z,7.10
2022-12-22T19:31:52.705Z,7.00
2022-12-22T19:34:22.490Z,7.20
2022-12-22T19:36:51.444Z,7.20
2022-12-22T19:39:20.186Z,7.20
2022-12-22T19:41:52.770Z,7.20
2022-12-22T19:44:24.304Z,7.10
2022-12-22T19:46:55.794Z,7.00
2022-12-22T19:49:27.024Z,7.00
2022-12-22T19:51:57.459Z,6.90
2022-12-22T19:54:26.127Z,7.10
2022-12-22T19:56:56.963Z,7.10
2022-12-22T19:59:38.694Z,7.10
2022-12-22T20:02:25.722Z,7.30
2022-12-22T20:04:55.199Z,7.40
2022-12-22T20:07:26.388Z,7.60
2022-12-22T20:09:54.758Z,7.80
2022-12-22T20:12:27.529Z,7.80
2022-12-22T20:14:56.188Z,8.10
2022-12-22T20:17:26.361Z,7.80
2022-12-22T20:19:54.706Z,7.90
2022-12-22T20:22:26.026Z,8.00
2022-12-22T20:24:54.843Z,8.00
2022-12-22T20:27:28.213Z,8.00
2022-12-22T20:29:57.357Z,8.00
2022-12-22T20:32:28.305Z,8.00
2022-12-22T20:34:57.211Z,8.00
2022-12-22T20:37:27.798Z,8.10
2022-12-22T20:39:57.227Z,8.10
2022-12-22T20:42:27.150Z,8.20
2022-12-22T20:45:04.069Z,8.10
2022-12-22T20:47:35.938Z,8.20
2022-12-22T20:50:06.074Z,8.20
2022-12-22T20:52:35.570Z,8.20
2022-12-22T20:55:03.724Z,8.20
2022-12-22T20:57:32.044Z,8.20
2022-12-22T21:00:00.204Z,8.20
2022-12-22T21:02:29.001Z,8.10
2022-12-22T21:05:00.191Z,8.20
2022-12-22T21:07:30.491Z,8.20
2022-12-22T21:09:59.167Z,8.20
2022-12-22T21:12:28.455Z,8.20
2022-12-22T21:14:56.896Z,8.30
2022-12-22T21:17:26.235Z,8.30
2022-12-22T21:19:56.073Z,8.30
2022-12-22T21:22:28.213Z,8.30
2022-12-22T21:24:57.789Z,8.30
2022-12-22T21:27:27.386Z,8.30
2022-12-22T21:29:55.740Z,8.30
2022-12-22T21:32:23.810Z,8.40
2022-12-22T21:34:51.931Z,8.40
2022-12-22T21:37:21.584Z,8.40
2022-12-22T21:39:50.957Z,8.40
2022-12-22T21:42:20.089Z,8.40
2022-12-22T21:44:48.491Z,8.40
2022-12-22T21:47:21.587Z,8.40
2022-12-22T21:49:50.238Z,8.40
2022-12-22T21:52:18.409Z,8.40
2022-12-22T21:54:46.467Z,8.50
2022-12-22T21:57:17.040Z,8.50
2022-12-22T21:59:45.140Z,8.60
2022-12-22T22:02:16.722Z,8.60
2022-12-22T22:04:51.845Z,8.50
2022-12-22T22:07:22.464Z,8.70
2022-12-22T22:09:50.494Z,8.80
2022-12-22T22:12:36.876Z,8.80
2022-12-22T22:15:05.900Z,8.80
2022-12-22T22:17:33.975Z,8.80
2022-12-22T22:20:02.164Z,8.90
2022-12-22T22:22:30.457Z,8.90
2022-12-22T22:24:58.779Z,9.00
2022-12-22T22:27:28.456Z,9.00
2022-12-22T22:29:56.620Z,9.00
2022-12-22T22:32:26.325Z,9.00
2022-12-22T22:34:54.353Z,9.10
2022-12-22T22:37:22.488Z,9.30
2022-12-22T22:39:50.897Z,9.10
2022-12-22T22:42:19.043Z,9.10
2022-12-22T22:44:48.544Z,9.10
2022-12-22T22:47:16.683Z,9.10
2022-12-22T22:49:44.680Z,9.10
2022-12-22T22:52:13.576Z,9.10
2022-12-22T22:54:43.006Z,9.10
2022-12-22T22:57:11.983Z,9.10
2022-12-22T22:59:40.915Z,9.20
2022-12-22T23:02:11.928Z,9.20
2022-12-22T23:04:40.727Z,9.20
2022-12-22T23:07:10.707Z,9.20
2022-12-22T23:09:40.203Z,9.20
2022-12-22T23:12:09.315Z,9.30
2022-12-22T23:14:39.755Z,9.40
2022-12-22T23:17:09.030Z,9.30
2022-12-22T23:19:40.712Z,9.40
2022-12-22T23:22:08.931Z,9.40
2022-12-22T23:24:38.055Z,9.40
2022-12-22T23:27:07.684Z,9.40
2022-12-22T23:29:38.010Z,9.40
2022-12-22T23:32:07.041Z,9.60
2022-12-22T23:34:36.791Z,9.60
2022-12-22T23:37:06.911Z,9.60
2022-12-22T23:39:36.961Z,9.60
2022-12-22T23:42:06.677Z,9.60
2022-12-22T23:44:35.574Z,9.50
2022-12-22T23:47:04.505Z,9.60
2022-12-22T23:49:32.682Z,9.50
2022-12-22T23:52:00.874Z,9.50
2022-12-22T23:54:30.747Z,9.60
2022-12-22T23:56:59.195Z,9.60
2022-12-22T23:59:27.486Z,9.50
